createdAt,value
2023-04-25T00:00:30.003Z,99323.01
2023-04-25T00:01:34.510Z,99323.01
2023-04-25T00:02:37.470Z,99317.78
2023-04-25T00:03:40.914Z,99324.91
2023-04-25T00:04:44.542Z,99320.45
2023-04-25T00:05:48.752Z,99316.06
2023-04-25T00:06:53.310Z,99319.47
2023-04-25T00:07:56.576Z,99314.13
2023-04-25T00:08:59.266Z,99317.78
2023-04-25T00:10:02.047Z,99313.28
2023-04-25T00:11:05.485Z,99310.50
2023-04-25T00:12:09.399Z,99310.39
2023-04-25T00:13:12.684Z,99316.61
2023-04-25T00:14:17.175Z,99305.81
2023-04-25T00:15:20.132Z,99308.48
2023-04-25T00:16:24.277Z,99311.05
2023-04-25T00:17:27.571Z,99319.78
2023-04-25T00:18:33.254Z,99318.83
2023-04-25T00:19:38.264Z,99308.99
2023-04-25T00:20:44.246Z,99305.37
2023-04-25T00:21:48.270Z,99310.59
2023-04-25T00:22:54.756Z,99311.47
2023-04-25T00:23:58.116Z,99309.53
2023-04-25T00:25:02.056Z,99298.31
2023-04-25T00:26:05.185Z,99298.31
2023-04-25T00:27:08.064Z,99310.38
2023-04-25T00:28:11.586Z,99296.06
2023-04-25T00:29:15.271Z,99294.27
2023-04-25T00:30:18.453Z,99300.45
2023-04-25T00:31:21.346Z,99297.78
2023-04-25T00:32:24.532Z,99293.28
2023-04-25T00:33:27.589Z,99295.84
2023-04-25T00:34:31.824Z,99290.50
2023-04-25T00:35:35.563Z,99289.55
2023-04-25T00:36:38.570Z,99286.04
2023-04-25T00:37:41.304Z,99285.08
2023-04-25T00:38:44.648Z,99289.55
2023-04-25T00:39:47.788Z,99285.08
2023-04-25T00:40:50.889Z,99280.58
2023-04-25T00:41:55.484Z,99279.73
2023-04-25T00:42:58.575Z,99284.09
2023-04-25T00:44:01.661Z,99288.48
2023-04-25T00:45:07.624Z,99279.63
2023-04-25T00:46:11.706Z,99283.98
2023-04-25T00:47:15.369Z,99291.99
2023-04-25T00:48:18.785Z,99280.47
2023-04-25T00:49:21.842Z,99284.09
2023-04-25T00:50:25.084Z,99285.81
2023-04-25T00:51:27.979Z,99283.98
2023-04-25T00:52:30.914Z,99292.87
2023-04-25T00:53:34.158Z,99287.52
2023-04-25T00:54:37.169Z,99290.20
2023-04-25T00:55:40.286Z,99281.20
2023-04-25T00:56:43.301Z,99290.20
2023-04-25T00:57:47.740Z,99286.65
2023-04-25T00:58:52.168Z,99283.98
2023-04-25T00:59:55.018Z,99283.03
2023-04-25T01:00:58.022Z,99285.70
2023-04-25T01:02:02.311Z,99288.37
2023-04-25T01:03:05.976Z,99288.37
2023-04-25T01:04:09.925Z,99294.55
2023-04-25T01:05:15.516Z,99291.87
2023-04-25T01:06:32.291Z,99291.03
2023-04-25T01:07:35.456Z,99282.07
2023-04-25T01:08:39.441Z,99294.55
2023-04-25T01:09:43.101Z,99290.92
2023-04-25T01:10:46.073Z,99284.73
2023-04-25T01:11:49.946Z,99286.45
2023-04-25T01:12:52.725Z,99277.57
2023-04-25T01:13:55.624Z,99282.07
2023-04-25T01:14:58.467Z,99280.23
2023-04-25T01:16:01.773Z,99274.06
2023-04-25T01:17:04.715Z,99274.06
2023-04-25T01:18:07.716Z,99273.19
2023-04-25T01:19:14.866Z,99267.84
2023-04-25T01:20:19.514Z,99274.06
2023-04-25T01:21:25.831Z,99270.52
2023-04-25T01:22:28.746Z,99272.23
2023-04-25T01:23:33.964Z,99273.19
2023-04-25T01:24:36.852Z,99267.84
2023-04-25T01:25:40.153Z,99275.86
2023-04-25T01:26:47.857Z,99266.16
2023-04-25T01:27:52.426Z,99270.52
2023-04-25T01:28:57.437Z,99268.83
2023-04-25T01:30:01.019Z,99275.13
2023-04-25T01:31:04.341Z,99277.69
2023-04-25T01:32:09.263Z,99276.84
2023-04-25T01:33:12.804Z,99273.30
2023-04-25T01:34:16.737Z,99274.17
2023-04-25T01:35:19.763Z,99272.45
2023-04-25T01:36:22.739Z,99265.29
2023-04-25T01:37:25.972Z,99265.29
2023-04-25T01:38:29.007Z,99267.00
2023-04-25T01:39:31.706Z,99261.66
2023-04-25T01:40:38.429Z,99267.84
2023-04-25T01:41:41.251Z,99260.82
2023-04-25T01:42:45.081Z,99266.16
2023-04-25T01:43:48.162Z,99258.99
2023-04-25T01:44:51.383Z,99266.16
2023-04-25T01:45:55.008Z,99268.83
2023-04-25T01:46:59.015Z,99258.16
2023-04-25T01:48:03.273Z,99264.34
2023-04-25T01:49:07.396Z,99261.66
2023-04-25T01:50:11.859Z,99258.99
2023-04-25T01:51:15.702Z,99261.66
2023-04-25T01:52:19.547Z,99266.16
2023-04-25T01:53:23.212Z,99265.17
2023-04-25T01:54:27.029Z,99263.38
2023-04-25T01:55:30.095Z,99263.49
2023-04-25T01:56:39.598Z,99267.00
2023-04-25T01:57:45.110Z,99258.16
2023-04-25T01:58:49.848Z,99265.17
2023-04-25T01:59:58.809Z,99261.66
2023-04-25T02:01:16.903Z,99259.95
2023-04-25T02:02:21.910Z,99254.61
2023-04-25T02:03:24.823Z,99259.95
2023-04-25T02:04:29.595Z,99253.77
2023-04-25T02:06:50.144Z,99254.80
2023-04-25T02:07:52.902Z,99259.95
2023-04-25T02:08:56.144Z,99258.27
2023-04-25T02:10:00.768Z,99250.25
2023-04-25T02:11:06.355Z,99252.05
2023-04-25T02:12:11.221Z,99248.42
2023-04-25T02:14:40.847Z,99247.66
2023-04-25T02:16:02.586Z,99251.94
2023-04-25T02:17:06.622Z,99253.77
2023-04-25T02:18:10.933Z,99253.66
2023-04-25T02:19:14.581Z,99247.47
2023-04-25T02:20:20.513Z,99244.80
2023-04-25T02:21:23.405Z,99244.80
2023-04-25T02:22:27.797Z,99245.76
2023-04-25T02:23:30.633Z,99241.26
2023-04-25T02:24:36.211Z,99243.92
2023-04-25T02:25:39.913Z,99242.12
2023-04-25T02:26:42.813Z,99241.14
2023-04-25T02:27:47.397Z,99233.25
2023-04-25T02:28:58.779Z,99239.46
2023-04-25T02:30:01.683Z,99236.79
2023-04-25T02:31:04.906Z,99236.79
2023-04-25T02:32:08.781Z,99239.46
2023-04-25T02:33:11.821Z,99242.12
2023-04-25T02:34:14.588Z,99239.46
2023-04-25T02:35:18.971Z,99231.45
2023-04-25T02:36:22.274Z,99240.30
2023-04-25T02:37:27.835Z,99239.46
2023-04-25T02:38:30.640Z,99236.67
2023-04-25T02:39:33.393Z,99237.63
2023-04-25T02:40:36.318Z,99245.53
2023-04-25T02:41:39.251Z,99242.02
2023-04-25T02:42:42.217Z,99238.47
2023-04-25T02:43:45.481Z,99239.46
2023-04-25T02:44:49.319Z,99240.30
2023-04-25T02:45:52.820Z,99237.63
2023-04-25T02:46:55.809Z,99234.96
2023-04-25T02:47:59.985Z,99240.30
2023-04-25T02:49:03.665Z,99239.46
2023-04-25T02:50:07.736Z,99242.12
2023-04-25T02:51:10.754Z,99242.97
2023-04-25T02:52:15.051Z,99239.46
2023-04-25T02:53:20.003Z,99235.80
2023-04-25T02:54:24.586Z,99241.14
2023-04-25T02:55:28.385Z,99234.96
2023-04-25T02:56:32.157Z,99234.96
2023-04-25T02:57:35.173Z,99232.17
2023-04-25T02:58:37.981Z,99236.79
2023-04-25T02:59:40.621Z,99232.29
2023-04-25T03:00:44.645Z,99232.17
2023-04-25T03:01:48.430Z,99234.96
2023-04-25T03:02:52.521Z,99233.13
2023-04-25T03:03:56.606Z,99240.19
2023-04-25T03:05:00.947Z,99242.86
2023-04-25T03:06:04.438Z,99234.84
2023-04-25T03:07:09.504Z,99243.73
2023-04-25T03:08:13.052Z,99247.24
2023-04-25T03:09:16.076Z,99242.86
2023-04-25T03:10:20.240Z,99240.19
2023-04-25T03:12:38.295Z,99237.58
2023-04-25T03:13:41.994Z,99246.28
2023-04-25T03:14:45.166Z,99245.41
2023-04-25T03:15:47.859Z,99242.62
2023-04-25T03:16:50.670Z,99241.78
2023-04-25T03:17:55.154Z,99242.62
2023-04-25T03:19:00.029Z,99242.62
2023-04-25T03:20:04.737Z,99239.95
2023-04-25T03:21:08.514Z,99239.11
2023-04-25T03:22:11.554Z,99242.62
2023-04-25T03:23:14.746Z,99239.95
2023-04-25T03:24:18.636Z,99239.95
2023-04-25T03:25:21.670Z,99242.62
2023-04-25T03:26:24.670Z,99234.61
2023-04-25T03:27:28.385Z,99240.95
2023-04-25T03:28:32.439Z,99240.83
2023-04-25T03:29:36.272Z,99239.95
2023-04-25T03:30:40.595Z,99240.95
2023-04-25T03:31:43.649Z,99242.62
2023-04-25T03:32:48.404Z,99248.95
2023-04-25T03:33:53.590Z,99245.30
2023-04-25T03:36:10.500Z,99235.70
2023-04-25T03:38:25.578Z,99243.72
2023-04-25T03:39:28.977Z,99251.52
2023-04-25T03:40:34.495Z,99241.78
2023-04-25T03:41:44.337Z,99245.30
2023-04-25T03:42:49.231Z,99244.34
2023-04-25T03:43:52.525Z,99249.69
2023-04-25T03:44:57.377Z,99251.40
2023-04-25T03:46:01.386Z,99250.55
2023-04-25T03:47:06.057Z,99254.06
2023-04-25T03:48:09.681Z,99256.73
2023-04-25T03:49:13.357Z,99256.73
2023-04-25T03:50:20.655Z,99243.50
2023-04-25T03:51:24.598Z,99247.89
2023-04-25T03:52:28.100Z,99244.34
2023-04-25T03:53:31.188Z,99249.69
2023-04-25T03:54:52.584Z,99255.90
2023-04-25T03:55:57.256Z,99252.35
2023-04-25T03:57:01.414Z,99254.19
2023-04-25T03:58:06.024Z,99253.31
2023-04-25T03:59:08.943Z,99247.97
2023-04-25T04:00:13.848Z,99245.41
2023-04-25T04:01:16.500Z,99247.97
2023-04-25T04:02:20.468Z,99242.74
2023-04-25T04:03:23.770Z,99246.28
2023-04-25T04:04:27.234Z,99241.78
2023-04-25T04:05:31.320Z,99245.30
2023-04-25T04:06:35.520Z,99240.83
2023-04-25T04:07:40.658Z,99239.87
2023-04-25T04:08:46.326Z,99239.00
2023-04-25T04:09:49.192Z,99247.02
2023-04-25T04:10:54.903Z,99241.67
2023-04-25T04:11:58.982Z,99243.39
2023-04-25T04:13:03.121Z,99239.00
2023-04-25T04:14:07.165Z,99248.73
2023-04-25T04:15:12.470Z,99239.00
2023-04-25T04:16:16.635Z,99247.02
2023-04-25T04:17:20.178Z,99245.22
2023-04-25T04:18:23.958Z,99246.05
2023-04-25T04:19:27.706Z,99243.39
2023-04-25T04:20:33.761Z,99249.69
2023-04-25T04:21:39.447Z,99246.05
2023-04-25T04:22:42.918Z,99247.89
2023-04-25T04:23:48.644Z,99251.40
2023-04-25T04:24:52.373Z,99247.02
2023-04-25T04:25:57.976Z,99243.39
2023-04-25T04:27:04.717Z,99250.44
2023-04-25T04:28:16.533Z,99241.56
2023-04-25T04:29:21.499Z,99241.56
2023-04-25T04:30:27.016Z,99236.22
2023-04-25T04:31:33.095Z,99238.88
2023-04-25T04:32:39.414Z,99240.72
2023-04-25T04:33:43.013Z,99240.72
2023-04-25T04:34:48.362Z,99233.66
2023-04-25T04:37:07.544Z,99222.23
2023-04-25T04:38:12.847Z,99230.98
2023-04-25T04:39:15.634Z,99224.80
2023-04-25T04:40:22.265Z,99231.95
2023-04-25T04:41:27.329Z,99223.94
2023-04-25T04:42:32.378Z,99218.59
2023-04-25T04:43:37.183Z,99224.80
2023-04-25T04:45:57.340Z,99222.34
2023-04-25T04:47:17.030Z,99218.59
2023-04-25T04:49:50.533Z,99217.84
2023-04-25T04:51:07.708Z,99220.30
2023-04-25T04:52:18.543Z,99220.42
2023-04-25T04:53:27.099Z,99227.59
2023-04-25T04:54:38.838Z,99217.87
2023-04-25T04:55:46.658Z,99230.27
2023-04-25T04:58:07.401Z,99221.56
2023-04-25T04:59:14.736Z,99219.70
2023-04-25T05:00:21.240Z,99217.03
2023-04-25T05:01:27.123Z,99228.55
2023-04-25T05:02:34.767Z,99229.39
2023-04-25T05:03:40.240Z,99225.88
2023-04-25T05:04:52.121Z,99228.44
2023-04-25T05:06:13.934Z,99225.88
2023-04-25T05:07:30.448Z,99232.94
2023-04-25T05:08:44.755Z,99237.40
2023-04-25T05:09:52.265Z,99231.22
2023-04-25T05:11:13.566Z,99243.62
2023-04-25T05:12:18.208Z,99235.72
2023-04-25T05:13:32.327Z,99234.73
2023-04-25T05:14:40.696Z,99232.17
2023-04-25T05:15:48.022Z,99235.80
2023-04-25T05:17:01.961Z,99235.80
2023-04-25T05:19:51.040Z,99225.42
2023-04-25T05:22:15.469Z,99228.09
2023-04-25T05:23:36.896Z,99230.58
2023-04-25T05:24:43.075Z,99239.46
2023-04-25T05:25:57.058Z,99224.39
2023-04-25T05:27:06.634Z,99222.45
2023-04-25T05:28:21.671Z,99226.95
2023-04-25T05:29:26.728Z,99221.50
2023-04-25T05:31:53.923Z,99219.88
2023-04-25T05:32:57.350Z,99225.13
2023-04-25T05:34:00.643Z,99221.61
2023-04-25T05:35:07.282Z,99223.44
2023-04-25T05:36:13.660Z,99224.28
2023-04-25T05:37:16.346Z,99217.03
2023-04-25T05:38:22.131Z,99217.03
2023-04-25T05:39:32.653Z,99225.04
2023-04-25T05:40:49.530Z,99219.70
2023-04-25T05:41:54.306Z,99225.88
2023-04-25T05:43:15.417Z,99215.20
2023-04-25T05:44:20.150Z,99224.05
2023-04-25T05:45:24.686Z,99216.03
2023-04-25T05:46:47.850Z,99213.37
2023-04-25T05:47:52.875Z,99216.03
2023-04-25T05:49:00.500Z,99209.86
2023-04-25T05:50:21.621Z,99215.20
2023-04-25T05:51:33.427Z,99217.03
2023-04-25T05:52:38.984Z,99210.81
2023-04-25T05:53:46.171Z,99210.81
2023-04-25T05:54:50.612Z,99214.44
2023-04-25T05:55:53.339Z,99213.59
2023-04-25T05:56:59.597Z,99212.64
2023-04-25T05:58:03.646Z,99212.64
2023-04-25T05:59:08.283Z,99212.64
2023-04-25T06:00:14.098Z,99209.09
2023-04-25T06:01:16.963Z,99208.14
2023-04-25T06:02:22.045Z,99210.81
2023-04-25T06:03:27.543Z,99215.31
2023-04-25T06:04:32.413Z,99214.36
2023-04-25T06:05:37.151Z,99212.53
2023-04-25T06:06:41.615Z,99211.69
2023-04-25T06:07:46.111Z,99210.81
2023-04-25T06:08:49.908Z,99214.36
2023-04-25T06:10:07.897Z,99212.53
2023-04-25T06:11:11.537Z,99214.36
2023-04-25T06:12:14.512Z,99205.36
2023-04-25T06:13:19.111Z,99209.73
2023-04-25T06:14:27.215Z,99210.70
2023-04-25T06:15:33.005Z,99211.57
2023-04-25T06:16:37.598Z,99204.40
2023-04-25T06:17:41.682Z,99204.40
2023-04-25T06:18:44.479Z,99209.73
2023-04-25T06:19:48.402Z,99209.73
2023-04-25T06:20:51.197Z,99204.40
2023-04-25T06:21:55.444Z,99203.56
2023-04-25T06:22:58.599Z,99202.69
2023-04-25T06:24:19.740Z,99198.22
2023-04-25T06:25:23.697Z,99208.91
2023-04-25T06:26:27.863Z,99196.39
2023-04-25T06:27:31.508Z,99204.40
2023-04-25T06:28:34.256Z,99205.36
2023-04-25T06:29:38.158Z,99201.84
2023-04-25T06:30:41.404Z,99198.22
2023-04-25T06:31:46.462Z,99200.89
2023-04-25T06:32:50.340Z,99203.56
2023-04-25T06:33:55.033Z,99204.40
2023-04-25T06:34:59.046Z,99200.89
2023-04-25T06:36:01.992Z,99204.40
2023-04-25T06:37:05.464Z,99197.23
2023-04-25T06:38:11.885Z,99199.06
2023-04-25T06:39:15.157Z,99202.57
2023-04-25T06:40:18.080Z,99198.10
2023-04-25T06:41:21.490Z,99196.27
2023-04-25T06:42:25.372Z,99200.77
2023-04-25T06:43:35.933Z,99201.61
2023-04-25T06:44:43.657Z,99197.98
2023-04-25T06:45:48.546Z,99197.03
2023-04-25T06:46:54.592Z,99199.81
2023-04-25T06:47:58.386Z,99197.98
2023-04-25T06:49:01.794Z,99195.31
2023-04-25T06:50:08.226Z,99198.94
2023-04-25T06:51:14.049Z,99195.31
2023-04-25T06:52:19.220Z,99190.94
2023-04-25T06:53:23.221Z,99195.43
2023-04-25T06:54:30.180Z,99194.56
2023-04-25T06:55:35.934Z,99197.23
2023-04-25T06:56:56.569Z,99191.05
2023-04-25T06:58:00.641Z,99194.56
2023-04-25T06:59:08.192Z,99186.66
2023-04-25T07:00:15.237Z,99191.05
2023-04-25T07:01:19.105Z,99185.70
2023-04-25T07:02:23.988Z,99189.34
2023-04-25T07:03:28.344Z,99188.49
2023-04-25T07:04:33.441Z,99191.16
2023-04-25T07:05:38.377Z,99190.33
2023-04-25T07:07:56.482Z,99187.83
2023-04-25T07:08:59.188Z,99189.45
2023-04-25T07:10:02.694Z,99189.45
2023-04-25T07:11:05.577Z,99188.49
2023-04-25T07:12:08.703Z,99190.20
2023-04-25T07:13:12.096Z,99190.20
2023-04-25T07:14:15.610Z,99184.86
2023-04-25T07:15:18.925Z,99193.60
2023-04-25T07:16:22.224Z,99190.94
2023-04-25T07:17:25.217Z,99189.98
2023-04-25T07:18:28.821Z,99189.98
2023-04-25T07:19:33.786Z,99188.15
2023-04-25T07:20:37.594Z,99188.15
2023-04-25T07:21:40.860Z,99184.52
2023-04-25T07:22:45.315Z,99183.67
2023-04-25T07:23:48.300Z,99188.03
2023-04-25T07:24:54.032Z,99181.73
2023-04-25T07:26:12.113Z,99182.60
2023-04-25T07:27:17.152Z,99185.27
2023-04-25T07:28:22.415Z,99182.60
2023-04-25T07:29:26.325Z,99183.45
2023-04-25T07:30:29.819Z,99177.27
2023-04-25T07:31:32.644Z,99177.27
2023-04-25T07:32:36.380Z,99183.45
2023-04-25T07:33:41.803Z,99178.94
2023-04-25T07:34:45.606Z,99185.27
2023-04-25T07:35:50.311Z,99187.83
2023-04-25T07:36:54.841Z,99180.77
2023-04-25T07:38:00.394Z,99181.61
2023-04-25T07:39:03.772Z,99185.16
2023-04-25T07:40:10.244Z,99184.28
2023-04-25T07:41:14.975Z,99178.94
2023-04-25T07:42:17.766Z,99182.48
2023-04-25T07:43:21.522Z,99179.81
2023-04-25T07:44:26.703Z,99178.94
2023-04-25T07:45:29.673Z,99184.17
2023-04-25T07:46:33.127Z,99174.48
2023-04-25T07:47:38.096Z,99176.16
2023-04-25T07:48:42.584Z,99173.48
2023-04-25T07:49:47.513Z,99177.98
2023-04-25T07:50:50.870Z,99171.80
2023-04-25T07:51:56.280Z,99174.36
2023-04-25T07:53:00.437Z,99172.53
2023-04-25T07:54:05.994Z,99173.48
2023-04-25T07:55:09.996Z,99172.53
2023-04-25T07:56:21.077Z,99170.70
2023-04-25T07:57:25.061Z,99164.52
2023-04-25T07:58:29.949Z,99169.02
2023-04-25T07:59:36.041Z,99172.53
2023-04-25T08:00:40.391Z,99170.70
2023-04-25T08:01:57.843Z,99168.94
2023-04-25T08:03:01.900Z,99164.43
2023-04-25T08:04:06.372Z,99167.97
2023-04-25T08:05:13.935Z,99163.47
2023-04-25T08:06:18.991Z,99166.98
2023-04-25T08:07:33.111Z,99155.45
2023-04-25T08:08:37.809Z,99166.98
2023-04-25T08:09:42.199Z,99164.20
2023-04-25T08:10:48.584Z,99166.98
2023-04-25T08:11:51.802Z,99157.17
2023-04-25T08:12:56.574Z,99164.31
2023-04-25T08:14:00.791Z,99168.70
2023-04-25T08:15:05.832Z,99160.80
2023-04-25T08:16:10.748Z,99158.97
2023-04-25T08:17:15.244Z,99161.77
2023-04-25T08:18:18.224Z,99163.59
2023-04-25T08:19:21.409Z,99154.67
2023-04-25T08:20:26.057Z,99153.83
2023-04-25T08:21:29.879Z,99156.50
2023-04-25T08:22:34.461Z,99163.67
2023-04-25T08:23:56.291Z,99161.96
2023-04-25T08:25:01.695Z,99157.58
2023-04-25T08:26:06.003Z,99165.47
2023-04-25T08:27:11.434Z,99152.23
2023-04-25T08:28:15.668Z,99155.90
2023-04-25T08:29:18.380Z,99158.56
2023-04-25T08:30:21.530Z,99156.73
2023-04-25T08:31:25.109Z,99154.19
2023-04-25T08:32:34.688Z,99152.36
2023-04-25T08:33:39.964Z,99147.13
2023-04-25T08:34:45.612Z,99145.41
2023-04-25T08:35:48.936Z,99143.62
2023-04-25T08:36:52.904Z,99149.92
2023-04-25T08:38:07.076Z,99148.09
2023-04-25T08:39:10.211Z,99135.72
2023-04-25T08:40:16.416Z,99148.09
2023-04-25T08:41:33.299Z,99148.09
2023-04-25T08:42:37.227Z,99142.86
2023-04-25T08:43:42.301Z,99136.69
2023-04-25T08:44:46.615Z,99142.02
2023-04-25T08:45:50.359Z,99137.64
2023-04-25T08:47:11.696Z,99135.81
2023-04-25T08:48:17.471Z,99135.81
2023-04-25T08:49:21.851Z,99130.59
2023-04-25T08:50:26.565Z,99133.26
2023-04-25T08:51:32.266Z,99134.13
2023-04-25T08:52:41.176Z,99139.47
2023-04-25T08:54:56.968Z,99131.63
2023-04-25T08:56:03.047Z,99134.13
2023-04-25T08:57:08.080Z,99130.59
2023-04-25T08:58:11.643Z,99128.79
2023-04-25T08:59:15.810Z,99130.47
2023-04-25T09:00:19.635Z,99125.13
2023-04-25T09:01:24.575Z,99131.23
2023-04-25T09:02:28.986Z,99131.23
2023-04-25T09:03:31.986Z,99131.23
2023-04-25T09:04:35.919Z,99127.59
2023-04-25T09:05:40.800Z,99129.28
2023-04-25T09:06:44.703Z,99130.98
2023-04-25T09:07:48.538Z,99124.80
2023-04-25T09:08:52.939Z,99120.31
2023-04-25T09:09:55.885Z,99126.52
2023-04-25T09:10:59.563Z,99129.19
2023-04-25T09:12:02.493Z,99127.36
2023-04-25T09:13:14.424Z,99127.36
2023-04-25T09:14:36.095Z,99109.51
2023-04-25T09:15:55.059Z,99124.57
2023-04-25T09:18:31.367Z,99114.92
2023-04-25T09:19:41.024Z,99109.51
2023-04-25T09:23:11.056Z,99109.81
2023-04-25T09:24:15.243Z,99103.56
2023-04-25T09:25:18.049Z,99108.78
2023-04-25T09:26:22.565Z,99107.91
2023-04-25T09:27:27.587Z,99107.07
2023-04-25T09:28:35.875Z,99109.86
2023-04-25T09:29:41.179Z,99105.36
2023-04-25T09:30:45.733Z,99110.70
2023-04-25T09:31:53.337Z,99103.68
2023-04-25T09:34:22.648Z,99106.55
2023-04-25T09:35:28.152Z,99103.68
2023-04-25T09:36:32.401Z,99103.77
2023-04-25T09:37:37.828Z,99103.77
2023-04-25T09:39:01.579Z,99103.77
2023-04-25T09:40:08.348Z,99100.14
2023-04-25T09:41:14.314Z,99098.34
2023-04-25T09:42:19.014Z,99103.68
2023-04-25T09:43:26.202Z,99094.80
2023-04-25T09:44:30.505Z,99095.67
2023-04-25T09:45:37.723Z,99097.23
2023-04-25T09:46:42.359Z,99095.55
2023-04-25T09:47:47.594Z,99086.55
2023-04-25T09:48:51.665Z,99096.27
2023-04-25T09:49:56.193Z,99092.64
2023-04-25T09:51:09.656Z,99086.34
2023-04-25T09:52:18.286Z,99090.69
2023-04-25T09:53:39.046Z,99088.80
2023-04-25T09:54:52.766Z,99087.84
2023-04-25T09:55:58.422Z,99085.90
2023-04-25T09:58:21.658Z,99086.80
2023-04-25T09:59:25.394Z,99077.64
2023-04-25T10:00:29.746Z,99079.48
2023-04-25T10:01:34.709Z,99083.86
2023-04-25T10:02:43.393Z,99081.06
2023-04-25T10:03:47.394Z,99090.67
2023-04-25T10:05:09.266Z,99078.16
2023-04-25T10:06:18.802Z,99083.38
2023-04-25T10:07:27.355Z,99083.26
2023-04-25T10:08:32.586Z,99074.28
2023-04-25T10:09:38.468Z,99074.16
2023-04-25T10:10:42.006Z,99074.16
2023-04-25T10:11:47.900Z,99068.70
2023-04-25T10:12:51.913Z,99066.91
2023-04-25T10:13:54.792Z,99065.91
2023-04-25T10:14:58.904Z,99064.95
2023-04-25T10:16:04.498Z,99057.77
2023-04-25T10:18:21.696Z,99056.83
2023-04-25T10:19:25.788Z,99064.70
2023-04-25T10:20:28.359Z,99054.89
2023-04-25T10:21:30.898Z,99062.78
2023-04-25T10:23:48.710Z,99058.17
2023-04-25T10:24:52.589Z,99061.58
2023-04-25T10:25:56.274Z,99051.73
2023-04-25T10:26:59.073Z,99063.17
2023-04-25T10:28:04.281Z,99052.48
2023-04-25T10:29:07.134Z,99056.83
2023-04-25T10:30:17.283Z,99053.20
2023-04-25T10:31:21.739Z,99050.40
2023-04-25T10:32:25.875Z,99054.78
2023-04-25T10:33:39.267Z,99053.91
2023-04-25T10:34:46.105Z,99055.63
2023-04-25T10:35:49.448Z,99049.44
2023-04-25T10:38:07.348Z,99053.83
2023-04-25T10:39:11.737Z,99052.83
2023-04-25T10:40:16.741Z,99048.48
2023-04-25T10:42:32.519Z,99051.03
2023-04-25T10:43:39.002Z,99053.58
2023-04-25T10:44:41.562Z,99052.70
2023-04-25T10:45:53.533Z,99052.61
2023-04-25T10:46:58.282Z,99051.62
2023-04-25T10:49:35.137Z,99044.48
2023-04-25T10:50:39.785Z,99047.02
2023-04-25T10:52:49.477Z,99040.72
2023-04-25T10:54:09.136Z,99039.84
2023-04-25T10:55:14.534Z,99034.50
2023-04-25T10:56:20.327Z,99037.17
2023-04-25T10:57:42.498Z,99035.38
2023-04-25T10:58:46.684Z,99030.02
2023-04-25T10:59:50.242Z,99029.90
2023-04-25T11:00:57.523Z,99035.25
2023-04-25T11:01:59.665Z,99030.86
2023-04-25T11:03:03.247Z,99029.03
2023-04-25T11:04:06.554Z,99027.35
2023-04-25T11:05:11.702Z,99030.86
2023-04-25T11:06:26.260Z,99026.36
2023-04-25T11:09:08.861Z,99030.03
2023-04-25T11:10:13.264Z,99023.69
2023-04-25T11:11:17.970Z,99024.55
2023-04-25T11:12:20.639Z,99028.19
2023-04-25T11:13:23.750Z,99025.39
2023-04-25T11:14:27.255Z,99014.83
2023-04-25T11:15:30.153Z,99013.86
2023-04-25T11:16:33.088Z,99020.17
2023-04-25T11:17:36.243Z,99020.05
2023-04-25T11:18:46.340Z,99018.34
2023-04-25T11:19:50.412Z,99021.01
2023-04-25T11:20:53.991Z,99016.53
2023-04-25T11:22:00.681Z,99018.22
2023-04-25T11:24:08.012Z,99014.70
2023-04-25T11:25:12.361Z,99015.55
2023-04-25T11:26:17.174Z,99004.02
2023-04-25T11:27:20.277Z,99006.56
2023-04-25T11:28:23.693Z,99008.39
2023-04-25T11:30:48.449Z,98997.70
2023-04-25T11:31:53.071Z,98999.38
2023-04-25T11:32:57.639Z,98993.20
2023-04-25T11:34:00.458Z,98997.70
2023-04-25T11:35:04.528Z,98998.55
2023-04-25T11:36:09.042Z,98998.55
2023-04-25T11:37:14.195Z,99001.22
2023-04-25T11:38:17.671Z,98998.55
2023-04-25T11:39:22.169Z,98990.52
2023-04-25T11:40:26.785Z,99000.25
2023-04-25T11:41:30.370Z,99000.13
2023-04-25T11:42:34.923Z,98999.28
2023-04-25T11:43:38.329Z,98996.61
2023-04-25T11:44:42.817Z,98995.62
2023-04-25T11:45:50.323Z,98990.27
2023-04-25T11:46:54.541Z,98995.62
2023-04-25T11:47:57.324Z,98995.62
2023-04-25T11:49:00.838Z,98996.36
2023-04-25T11:50:05.243Z,98979.58
2023-04-25T11:51:08.507Z,98983.12
2023-04-25T11:52:12.370Z,98985.80
2023-04-25T11:53:15.722Z,98981.29
2023-04-25T11:54:19.712Z,98973.27
2023-04-25T11:55:23.027Z,98977.66
2023-04-25T11:56:26.987Z,98964.29
2023-04-25T11:57:31.758Z,98979.36
2023-04-25T11:58:36.638Z,98969.63
2023-04-25T11:59:40.912Z,98973.14
2023-04-25T12:00:50.331Z,98982.88
2023-04-25T12:01:50.069Z,98973.14
2023-04-25T12:02:54.383Z,98974.02
2023-04-25T12:04:12.579Z,98973.02
2023-04-25T12:06:30.800Z,98971.33
2023-04-25T12:07:34.877Z,98973.02
2023-04-25T12:08:38.637Z,98974.86
2023-04-25T12:09:43.009Z,98971.22
2023-04-25T12:10:47.556Z,98967.67
2023-04-25T12:11:56.308Z,98964.16
2023-04-25T12:14:32.404Z,98951.62
2023-04-25T12:15:36.102Z,98960.52
2023-04-25T12:16:45.804Z,98957.85
2023-04-25T12:17:50.586Z,98959.66
2023-04-25T12:18:54.570Z,98962.33
2023-04-25T12:19:57.121Z,98952.50
2023-04-25T12:21:00.552Z,98950.80
2023-04-25T12:22:04.102Z,98956.14
2023-04-25T12:24:25.562Z,98949.07
2023-04-25T12:25:43.255Z,98948.13
2023-04-25T12:27:01.329Z,98951.63
2023-04-25T12:28:23.986Z,98963.20
2023-04-25T12:29:31.792Z,98948.96
2023-04-25T12:30:42.238Z,98947.16
2023-04-25T12:31:47.264Z,98951.63
2023-04-25T12:32:50.617Z,98956.98
2023-04-25T12:33:54.375Z,98953.47
2023-04-25T12:34:57.449Z,98953.47
2023-04-25T12:36:03.902Z,98944.61
2023-04-25T12:37:07.492Z,98947.28
2023-04-25T12:38:10.163Z,98940.94
2023-04-25T12:40:28.557Z,98932.06
2023-04-25T12:42:45.087Z,98929.39
2023-04-25T12:43:47.927Z,98935.47
2023-04-25T12:44:50.828Z,98932.80
2023-04-25T12:45:54.466Z,98932.70
2023-04-25T12:47:00.798Z,98926.48
2023-04-25T12:48:04.341Z,98929.03
2023-04-25T12:49:17.625Z,98929.03
2023-04-25T12:50:14.426Z,98919.20
2023-04-25T12:51:19.377Z,98918.34
2023-04-25T12:52:22.245Z,98927.23
2023-04-25T12:53:25.070Z,98920.05
2023-04-25T12:54:28.675Z,98922.72
2023-04-25T12:55:31.756Z,98926.23
2023-04-25T12:56:35.050Z,98919.08
2023-04-25T12:57:39.834Z,98913.73
2023-04-25T12:58:44.812Z,98917.25
2023-04-25T12:59:49.421Z,98910.06
2023-04-25T13:00:53.446Z,98906.55
2023-04-25T13:03:10.293Z,98902.05
2023-04-25T13:04:13.309Z,98903.04
2023-04-25T13:05:15.976Z,98905.72
2023-04-25T13:06:19.651Z,98903.87
2023-04-25T13:07:22.617Z,98896.83
2023-04-25T13:08:26.123Z,98895.86
2023-04-25T13:09:29.504Z,98899.50
2023-04-25T13:10:34.263Z,98903.04
2023-04-25T13:11:38.458Z,98889.67
2023-04-25T13:12:41.976Z,98896.83
2023-04-25T13:13:45.291Z,98899.50
2023-04-25T13:14:48.912Z,98893.19
2023-04-25T13:15:51.964Z,98894.15
2023-04-25T13:16:54.916Z,98889.67
2023-04-25T13:17:57.640Z,98892.34
2023-04-25T13:19:01.030Z,98887.00
2023-04-25T13:21:20.228Z,98887.80
2023-04-25T13:22:25.517Z,98890.52
2023-04-25T13:23:29.712Z,98885.16
2023-04-25T13:24:33.521Z,98886.00
2023-04-25T13:25:36.241Z,98884.33
2023-04-25T13:26:39.134Z,98885.16
2023-04-25T13:27:42.073Z,98881.52
2023-04-25T13:28:45.300Z,98878.85
2023-04-25T13:29:49.804Z,98880.66
2023-04-25T13:30:52.726Z,98878.85
2023-04-25T13:31:57.139Z,98881.52
2023-04-25T13:33:02.595Z,98871.67